Time;durP1;ratioP1;P1;durP2;ratioP2;P2;SDS_P1;SDS_P2;PMS_P1;PMS_P2;Temp;Humidity;BMP_temperature;BMP_pressure;BME280_temperature;BME280_humidity;BME280_pressure;Samples;Min_cycle;Max_cycle;Signal;HPM_P1;HPM_P2
2022/06/23 00:02:22;;;;;;;0.30;0.30;;;;;;;13.75;58.49;98463.97;4734734;30;20146;-85
2022/06/23 00:04:52;;;;;;;0.30;0.30;;;;;;;13.71;58.81;98469.16;4733584;30;20095;-86
2022/06/23 00:07:26;;;;;;;0.35;0.35;;;;;;;13.64;58.68;98465.91;4733570;30;20068;-84
2022/06/23 00:09:58;;;;;;;0.40;0.40;;;;;;;13.63;58.89;98475.16;4734529;30;20472;-85
2022/06/23 00:12:38;;;;;;;0.40;0.40;;;;;;;13.54;59.02;98474.09;4734039;30;20061;-84
2022/06/23 00:15:05;;;;;;;0.40;0.40;;;;;;;13.50;59.47;98475.75;4734238;30;20064;-85
2022/06/23 00:17:40;;;;;;;0.40;0.40;;;;;;;13.38;59.65;98471.44;4734149;30;20059;-85
2022/06/23 00:20:17;;;;;;;0.40;0.40;;;;;;;13.35;59.96;98471.19;4747783;30;20138;-84
2022/06/23 00:22:48;;;;;;;0.30;0.30;;;;;;;13.23;60.50;98468.72;4732773;30;20513;-86
2022/06/23 00:25:49;;;;;;;0.40;0.40;;;;;;;13.23;60.54;98468.72;4733095;30;20092;-85
2022/06/23 00:28:22;;;;;;;0.40;0.40;;;;;;;13.17;60.95;98477.97;4715402;30;20057;-85
2022/06/23 00:30:55;;;;;;;0.40;0.40;;;;;;;13.10;61.11;98480.16;4714853;30;20126;-84
2022/06/23 00:33:28;;;;;;;0.40;0.40;;;;;;;13.06;61.31;98488.00;4714937;30;20053;-85
2022/06/23 00:35:56;;;;;;;0.40;0.40;;;;;;;12.97;61.32;98482.31;4714662;30;20480;-84
2022/06/23 00:38:25;;;;;;;0.40;0.40;;;;;;;13.00;61.55;98492.59;4725608;30;20468;-85
2022/06/23 00:40:54;;;;;;;0.40;0.40;;;;;;;12.99;61.62;98493.72;4749657;30;20113;-85
2022/06/23 00:43:22;;;;;;;0.40;0.40;;;;;;;12.95;61.57;98484.50;4750338;30;20060;-84
2022/06/23 00:46:04;;;;;;;0.40;0.40;;;;;;;12.88;62.03;98485.84;4736590;30;20059;-85
2022/06/23 00:48:38;;;;;;;0.40;0.40;;;;;;;12.85;62.26;98491.81;4750831;30;20064;-85
2022/06/23 00:51:07;;;;;;;0.40;0.40;;;;;;;12.81;62.34;98496.94;4736663;30;20063;-84
2022/06/23 00:53:59;;;;;;;0.40;0.40;;;;;;;12.80;62.47;98493.44;4736413;30;20110;-84
2022/06/23 00:56:53;;;;;;;0.40;0.40;;;;;;;12.73;62.87;98501.00;4728023;30;20147;-85
2022/06/23 00:59:41;;;;;;;0.40;0.40;;;;;;;12.68;63.20;98494.78;4749618;30;20063;-84
2022/06/23 01:02:12;;;;;;;0.40;0.40;;;;;;;12.63;63.06;98492.88;4749384;30;20098;-84
2022/06/23 01:05:19;;;;;;;0.40;0.40;;;;;;;12.65;62.99;98504.25;4731927;30;20060;-85
2022/06/23 01:07:55;;;;;;;0.40;0.40;;;;;;;12.61;63.21;98503.19;4734063;30;20109;-84
2022/06/23 01:10:44;;;;;;;0.40;0.40;;;;;;;12.63;63.20;98500.19;4735264;30;20083;-84
2022/06/23 01:13:40;;;;;;;0.40;0.40;;;;;;;12.66;63.11;98502.38;4734747;30;20056;-84
2022/06/23 01:16:38;;;;;;;0.40;0.40;;;;;;;12.51;63.32;98495.06;4749136;30;20440;-85
2022/06/23 01:19:23;;;;;;;0.40;0.40;;;;;;;12.57;63.23;98508.31;4748918;30;20068;-85
2022/06/23 01:21:53;;;;;;;0.40;0.40;;;;;;;12.55;63.27;98510.47;4748889;30;20414;-86
2022/06/23 01:24:45;;;;;;;0.40;0.40;;;;;;;12.62;63.23;98520.25;4734349;30;20484;-85
2022/06/23 01:27:37;;;;;;;0.40;0.40;;;;;;;12.62;63.12;98528.38;4734374;30;20134;-85
2022/06/23 01:30:06;;;;;;;0.40;0.40;;;;;;;12.53;63.47;98522.66;4748376;30;20267;-85
2022/06/23 01:32:42;;;;;;;0.40;0.40;;;;;;;12.60;63.23;98527.81;4733892;30;20052;-85
2022/06/23 01:35:24;;;;;;;0.40;0.40;;;;;;;12.62;63.23;98531.88;4734146;30;20536;-85
2022/06/23 01:38:13;;;;;;;0.40;0.40;;;;;;;12.66;63.06;98534.84;4734219;30;20056;-84
2022/06/23 01:40:56;;;;;;;0.40;0.40;;;;;;;12.64;63.23;98537.84;4733817;30;20063;-83
2022/06/23 01:43:40;;;;;;;0.40;0.40;;;;;;;12.72;62.98;98537.31;4731965;30;20087;-85
2022/06/23 01:46:23;;;;;;;0.40;0.40;;;;;;;12.70;62.85;98536.75;4732058;30;20071;-84
2022/06/23 01:48:59;;;;;;;0.40;0.40;;;;;;;12.70;63.08;98530.53;4732044;30;20124;-85
2022/06/23 01:51:26;;;;;;;0.40;0.40;;;;;;;12.74;62.97;98534.34;4733095;30;20087;-84
2022/06/23 01:54:16;;;;;;;0.40;0.40;;;;;;;12.86;62.70;98534.06;4739246;30;20505;-85
2022/06/23 01:57:01;;;;;;;0.40;0.40;;;;;;;12.91;62.43;98532.19;4732157;30;20060;-84
2022/06/23 02:00:05;;;;;;;0.40;0.40;;;;;;;12.94;62.40;98542.47;4733103;30;20067;-85
2022/06/23 02:03:01;;;;;;;0.40;0.40;;;;;;;13.01;62.28;98536.75;4735348;30;20087;-84
2022/06/23 02:05:37;;;;;;;0.40;0.40;;;;;;;13.12;61.99;98545.72;4732866;30;20056;-84
2022/06/23 02:08:35;;;;;;;0.40;0.40;;;;;;;13.21;61.57;98544.06;4733302;30;20080;-84
2022/06/23 02:11:14;;;;;;;0.40;0.40;;;;;;;13.23;61.56;98547.31;4733142;30;20126;-84
2022/06/23 02:13:53;;;;;;;0.40;0.40;;;;;;;13.30;61.63;98549.78;4733247;30;20056;-84
2022/06/23 02:16:23;;;;;;;0.30;0.30;;;;;;;13.36;61.63;98556.81;4732076;30;20057;-85
2022/06/23 02:19:29;;;;;;;0.40;0.40;;;;;;;13.43;61.16;98552.72;4734032;30;20055;-85
2022/06/23 02:21:59;;;;;;;0.40;0.40;;;;;;;13.51;61.26;98558.69;4751778;30;20060;-83
2022/06/23 02:24:47;;;;;;;0.40;0.40;;;;;;;13.61;60.92;98561.38;4752063;30;20067;-84
2022/06/23 02:27:29;;;;;;;0.40;0.40;;;;;;;13.61;60.84;98564.88;4736988;30;20052;-84
2022/06/23 02:30:13;;;;;;;0.40;0.40;;;;;;;13.69;60.59;98565.41;4736699;30;20076;-83
2022/06/23 02:32:50;;;;;;;0.40;0.40;;;;;;;13.72;60.32;98575.69;4736499;30;20060;-86
2022/06/23 02:35:47;;;;;;;0.40;0.40;;;;;;;13.79;60.20;98565.38;4751102;30;20063;-85
2022/06/23 02:38:30;;;;;;;0.40;0.40;;;;;;;13.81;59.88;98576.78;4751129;30;20147;-85
2022/06/23 02:41:18;;;;;;;0.40;0.40;;;;;;;13.88;59.89;98569.97;4736522;30;20121;-85
2022/06/23 02:44:20;;;;;;;0.40;0.40;;;;;;;13.96;59.50;98584.06;4736445;30;20414;-83
2022/06/23 02:47:12;;;;;;;0.40;0.40;;;;;;;14.00;59.87;98574.25;4750925;30;20240;-85
2022/06/23 02:50:06;;;;;;;0.40;0.40;;;;;;;14.07;58.98;98583.72;4750937;30;20059;-83
2022/06/23 02:52:51;;;;;;;0.40;0.40;;;;;;;14.14;59.00;98579.91;4750871;30;20060;-84
2022/06/23 02:55:31;;;;;;;0.40;0.40;;;;;;;14.18;58.91;98575.53;4750983;30;20520;-84
2022/06/23 02:58:15;;;;;;;0.40;0.40;;;;;;;14.31;58.75;98586.63;4733347;30;20145;-85
2022/06/23 03:00:49;;;;;;;0.40;0.40;;;;;;;14.36;58.54;98590.41;4735198;30;20080;-84
2022/06/23 03:03:19;;;;;;;0.38;0.38;;;;;;;14.46;58.36;98596.59;4734402;30;20159;-85
2022/06/23 03:05:55;;;;;;;0.40;0.40;;;;;;;14.55;58.25;98591.41;4735498;30;20147;-85
2022/06/23 03:08:38;;;;;;;0.40;0.40;;;;;;;14.62;58.05;98594.63;4733857;30;20694;-84
2022/06/23 03:14:20;;;;;;;0.40;0.40;;;;;;;14.79;57.26;98596.16;4735393;30;20153;-83
2022/06/23 03:16:53;;;;;;;0.40;0.40;;;;;;;14.88;57.35;98597.16;4734954;30;20155;-84
2022/06/23 03:19:27;;;;;;;0.40;0.40;;;;;;;14.94;56.38;98601.50;4719520;30;20049;-84
2022/06/23 03:22:05;;;;;;;0.40;0.40;;;;;;;15.04;56.06;98606.84;4719499;30;20281;-84
2022/06/23 03:24:48;;;;;;;0.40;0.40;;;;;;;15.11;56.16;98609.22;4734559;30;20068;-85
2022/06/23 03:27:29;;;;;;;0.40;0.40;;;;;;;15.21;56.09;98616.50;4719919;30;20118;-84
2022/06/23 03:30:02;;;;;;;0.40;0.40;;;;;;;15.27;55.76;98615.38;4735105;30;20087;-84
2022/06/23 03:32:33;;;;;;;0.40;0.40;;;;;;;15.35;55.63;98625.63;4733419;30;20070;-84
2022/06/23 03:35:06;;;;;;;0.40;0.40;;;;;;;15.45;55.41;98630.16;4734669;30;20060;-84
2022/06/23 03:37:47;;;;;;;0.40;0.40;;;;;;;15.53;55.56;98640.41;4734624;30;20071;-84
2022/06/23 03:43:08;;;;;;;0.30;0.30;;;;;;;15.66;54.72;98641.66;4733849;30;20068;-85
2022/06/23 03:45:45;;;;;;;0.40;0.40;;;;;;;15.80;53.95;98631.78;4734089;30;20068;-84
2022/06/23 03:48:36;;;;;;;0.40;0.40;;;;;;;15.86;53.71;98641.50;4737426;30;20076;-86
2022/06/23 03:51:19;;;;;;;0.40;0.40;;;;;;;15.90;53.67;98648.00;4738008;30;20060;-85
2022/06/23 03:54:14;;;;;;;0.40;0.40;;;;;;;15.93;54.13;98647.41;4737955;30;20056;-86
2022/06/23 03:56:55;;;;;;;0.35;0.35;;;;;;;15.98;53.39;98636.47;4733717;30;20060;-85
2022/06/23 03:59:31;;;;;;;0.40;0.40;;;;;;;16.08;52.98;98642.88;4736019;30;20413;-83
2022/06/23 04:02:03;;;;;;;0.40;0.40;;;;;;;16.17;53.19;98641.16;4733480;30;20056;-85
2022/06/23 04:05:06;;;;;;;0.30;0.30;;;;;;;16.28;52.55;98642.66;4734324;30;20063;-84
2022/06/23 04:07:43;;;;;;;0.30;0.30;;;;;;;16.31;52.49;98652.97;4749502;30;20089;-84
2022/06/23 04:10:27;;;;;;;0.40;0.40;;;;;;;16.39;52.83;98651.53;4734928;30;20059;-85
2022/06/23 04:13:38;;;;;;;0.30;0.30;;;;;;;16.51;51.61;98660.09;4749183;30;20059;-86
2022/06/23 04:16:09;;;;;;;0.40;0.40;;;;;;;16.57;51.83;98658.09;4750132;30;20064;-85
2022/06/23 04:18:45;;;;;;;0.30;0.30;;;;;;;16.69;51.91;98658.50;4749254;30;20064;-84
2022/06/23 04:21:25;;;;;;;0.30;0.30;;;;;;;16.77;51.70;98651.56;4749347;30;20441;-85
2022/06/23 04:23:55;;;;;;;0.30;0.30;;;;;;;16.81;51.44;98660.78;4720106;30;20121;-86
2022/06/23 04:26:27;;;;;;;0.40;0.40;;;;;;;16.90;50.96;98662.56;4734694;30;20064;-85
2022/06/23 04:29:10;;;;;;;0.30;0.30;;;;;;;17.01;51.24;98663.22;4720831;30;20427;-86
2022/06/23 04:31:46;;;;;;;0.30;0.30;;;;;;;17.17;50.99;98663.84;4734447;30;20499;-85
2022/06/23 04:34:20;;;;;;;0.30;0.30;;;;;;;17.21;49.70;98670.28;4750203;30;20048;-84
2022/06/23 04:36:49;;;;;;;0.40;0.40;;;;;;;17.21;49.92;98675.75;4734651;30;20056;-85
2022/06/23 04:39:25;;;;;;;0.38;0.38;;;;;;;17.27;49.91;98674.59;4749131;30;20060;-85
2022/06/23 04:42:15;;;;;;;0.40;0.40;;;;;;;17.43;49.66;98671.63;4748422;30;20091;-86
2022/06/23 04:44:46;;;;;;;0.30;0.30;;;;;;;17.46;49.49;98663.63;4731454;30;20091;-85
2022/06/23 04:47:17;;;;;;;0.30;0.30;;;;;;;17.46;49.02;98665.56;4717735;30;20645;-85
2022/06/23 04:49:57;;;;;;;0.30;0.30;;;;;;;17.51;49.09;98670.94;4717463;30;20067;-86
2022/06/23 04:52:40;;;;;;;0.40;0.40;;;;;;;17.61;49.36;98669.94;4718117;30;20053;-85
2022/06/23 04:55:09;;;;;;;0.30;0.30;;;;;;;17.66;48.68;98676.13;4718152;30;20063;-85
2022/06/23 04:58:12;;;;;;;0.30;0.30;;;;;;;17.75;48.45;98681.72;4733407;30;20057;-85
2022/06/23 05:00:48;;;;;;;0.40;0.40;;;;;;;17.86;48.52;98671.47;4732465;30;20048;-85
2022/06/23 05:03:26;;;;;;;0.30;0.30;;;;;;;17.95;48.07;98677.81;4732200;30;20596;-85
2022/06/23 05:06:06;;;;;;;0.30;0.30;;;;;;;18.07;48.03;98672.69;4732363;30;20056;-85
2022/06/23 05:08:33;;;;;;;0.30;0.30;;;;;;;18.05;47.50;98668.63;4689065;30;20434;-85
2022/06/23 05:11:09;;;;;;;0.40;0.40;;;;;;;18.23;47.14;98680.59;4703569;30;20067;-84
2022/06/23 05:13:40;;;;;;;0.30;0.30;;;;;;;18.25;46.29;98670.97;4732633;30;20067;-86
2022/06/23 05:16:20;;;;;;;0.30;0.30;;;;;;;18.26;46.18;98671.81;4732523;30;20060;-85
2022/06/23 05:18:50;;;;;;;0.30;0.30;;;;;;;18.42;45.46;98670.38;4733469;30;20056;-85
2022/06/23 05:21:25;;;;;;;0.30;0.30;;;;;;;18.45;45.79;98680.69;4732256;30;20057;-86
2022/06/23 05:24:01;;;;;;;0.30;0.30;;;;;;;18.62;45.65;98671.88;4731940;30;20055;-85
2022/06/23 05:26:32;;;;;;;0.30;0.30;;;;;;;18.63;45.12;98671.59;4742880;30;20066;-85
2022/06/23 05:29:28;;;;;;;0.40;0.40;;;;;;;18.61;44.59;98671.09;4731810;30;20076;-83
2022/06/23 05:31:58;;;;;;;0.30;0.30;;;;;;;18.59;45.00;98681.50;4742718;30;20130;-85
2022/06/23 05:34:31;;;;;;;0.40;0.40;;;;;;;18.63;44.52;98688.00;4744653;30;20103;-85
2022/06/23 05:37:15;;;;;;;0.30;0.30;;;;;;;18.76;44.42;98691.03;4735817;30;20555;-84
2022/06/23 05:40:09;;;;;;;0.30;0.30;;;;;;;18.86;44.39;98695.47;4752636;30;20401;-83
2022/06/23 05:42:39;;;;;;;0.40;0.40;;;;;;;18.86;43.94;98698.19;4744091;30;20083;-85
2022/06/23 05:45:15;;;;;;;0.30;0.30;;;;;;;18.92;44.07;98699.72;4743633;30;20056;-84
2022/06/23 05:47:42;;;;;;;0.30;0.30;;;;;;;18.98;44.65;98693.00;4750414;30;20433;-86
2022/06/23 05:50:16;;;;;;;0.30;0.30;;;;;;;19.05;43.27;98699.69;4751507;30;20090;-85
2022/06/23 05:52:46;;;;;;;0.40;0.40;;;;;;;19.07;42.73;98715.00;4743424;30;20539;-85
2022/06/23 05:55:19;;;;;;;0.40;0.40;;;;;;;19.11;43.29;98707.78;4750090;30;20048;-85
2022/06/23 05:57:55;;;;;;;0.40;0.40;;;;;;;19.32;42.82;98708.09;4753755;30;20052;-85
2022/06/23 06:00:32;;;;;;;0.32;0.32;;;;;;;19.46;42.74;98715.16;4407351;30;10001272;-85
2022/06/23 06:03:16;;;;;;;0.30;0.30;;;;;;;19.34;40.76;98712.16;4736423;30;20471;-85
2022/06/23 06:05:45;;;;;;;;;;;;;;;19.34;41.19;98706.69;4739861;30;20109;-85
2022/06/23 06:08:30;;;;;;;0.30;0.30;;;;;;;19.32;41.48;98714.41;4741489;30;19961;-84
2022/06/23 06:11:02;;;;;;;0.30;0.30;;;;;;;19.41;40.60;98712.53;4739759;30;20056;-84
2022/06/23 06:13:33;;;;;;;0.40;0.40;;;;;;;19.45;40.44;98710.81;4741673;30;20084;-85
2022/06/23 06:16:01;;;;;;;0.30;0.30;;;;;;;19.46;41.32;98714.34;4741023;30;20455;-86
2022/06/23 06:18:34;;;;;;;0.30;0.30;;;;;;;19.58;40.88;98711.88;4730857;30;20525;-85
2022/06/23 06:21:05;;;;;;;0.30;0.30;;;;;;;19.66;40.99;98716.59;4721889;30;20056;-84
2022/06/23 06:23:44;;;;;;;0.30;0.30;;;;;;;19.75;41.41;98716.69;4743440;30;20143;-84
2022/06/23 06:26:14;;;;;;;0.40;0.40;;;;;;;19.82;40.92;98713.50;4734482;30;20057;-85
2022/06/23 06:28:44;;;;;;;0.40;0.40;;;;;;;19.90;41.37;98716.31;4733261;30;20505;-89
2022/06/23 06:31:27;;;;;;;0.30;0.30;;;;;;;19.99;41.17;98718.28;4743239;30;20639;-86
2022/06/23 06:34:28;;;;;;;0.30;0.30;;;;;;;20.06;41.39;98724.13;4726550;30;20056;-84
2022/06/23 06:36:55;;;;;;;0.30;0.30;;;;;;;20.19;40.93;98725.16;4757479;30;20144;-87
2022/06/23 06:39:26;;;;;;;0.30;0.30;;;;;;;20.16;40.64;98712.91;4733283;30;20056;-87
2022/06/23 06:41:59;;;;;;;0.30;0.30;;;;;;;20.33;40.75;98718.47;4731664;30;20524;-86
2022/06/23 06:44:27;;;;;;;0.30;0.30;;;;;;;20.50;40.24;98719.63;4733461;30;20065;-87
2022/06/23 06:46:56;;;;;;;0.30;0.30;;;;;;;20.55;39.72;98716.78;4747623;30;20072;-86
2022/06/23 06:49:25;;;;;;;0.30;0.30;;;;;;;20.50;39.81;98714.16;4728281;30;20064;-84
2022/06/23 06:51:56;;;;;;;0.30;0.30;;;;;;;20.39;39.51;98721.88;4762352;30;20062;-88
2022/06/23 06:54:27;;;;;;;0.30;0.30;;;;;;;20.39;40.43;98726.53;4767182;30;20079;-88
2022/06/23 06:56:57;;;;;;;0.30;0.30;;;;;;;20.38;40.63;98727.66;4749485;30;20579;-89
2022/06/23 06:59:39;;;;;;;0.30;0.30;;;;;;;20.62;40.37;98724.56;4742457;30;20506;-86
2022/06/23 07:02:20;;;;;;;0.30;0.30;;;;;;;20.72;40.42;98727.81;4733350;30;20082;-92
2022/06/23 07:04:56;;;;;;;0.30;0.30;;;;;;;20.62;38.34;98721.81;4731600;30;20094;-91
2022/06/23 07:07:27;;;;;;;0.30;0.30;;;;;;;20.60;39.54;98724.88;4748359;30;20616;-87
2022/06/23 07:10:05;;;;;;;0.30;0.30;;;;;;;20.74;39.38;98731.06;4740968;30;20167;-90
2022/06/23 07:12:43;;;;;;;0.30;0.30;;;;;;;20.81;39.33;98732.50;4736201;30;20085;-90
2022/06/23 07:15:23;;;;;;;0.30;0.30;;;;;;;20.93;39.05;98732.69;4741419;30;20521;-89
2022/06/23 07:17:53;;;;;;;0.30;0.30;;;;;;;21.07;38.58;98740.81;4763662;30;20066;-89
2022/06/23 07:20:30;;;;;;;0.30;0.30;;;;;;;21.09;38.24;98730.31;4759910;30;20139;-89
2022/06/23 07:23:05;;;;;;;0.30;0.30;;;;;;;21.16;38.20;98736.13;4756346;30;20051;-89
2022/06/23 07:26:13;;;;;;;0.32;0.32;;;;;;;21.25;37.74;98741.63;4739272;30;20060;-88
2022/06/23 07:28:51;;;;;;;0.30;0.30;;;;;;;21.18;38.18;98745.66;4736615;30;20052;-90
2022/06/23 07:31:21;;;;;;;0.30;0.30;;;;;;;21.32;37.82;98730.97;4743236;30;20067;-90
2022/06/23 07:33:54;;;;;;;0.30;0.30;;;;;;;21.44;38.34;98739.41;4754247;30;20063;-91
2022/06/23 07:36:27;;;;;;;0.30;0.30;;;;;;;21.47;37.69;98738.78;4750523;30;20102;-88
2022/06/23 07:39:04;;;;;;;0.30;0.30;;;;;;;21.35;36.47;98741.31;4740333;30;20068;-88
2022/06/23 07:41:52;;;;;;;0.30;0.30;;;;;;;21.39;37.10;98740.38;4737469;30;20052;-88
2022/06/23 07:44:43;;;;;;;0.30;0.30;;;;;;;21.49;37.30;98750.22;4760194;30;20067;-92
2022/06/23 07:47:15;;;;;;;0.30;0.30;;;;;;;21.60;36.78;98743.28;4749493;30;20052;-89
2022/06/23 07:49:43;;;;;;;0.30;0.30;;;;;;;21.68;37.09;98741.66;4741064;30;20060;-87
2022/06/23 07:52:15;;;;;;;0.40;0.40;;;;;;;21.53;36.03;98740.22;4733616;30;20512;-87
2022/06/23 07:54:42;;;;;;;0.40;0.40;;;;;;;21.57;35.95;98745.84;4733140;30;20064;-88
2022/06/23 07:57:11;;;;;;;0.40;0.40;;;;;;;21.83;36.26;98743.13;4749147;30;20061;-87
2022/06/23 07:59:44;;;;;;;0.40;0.40;;;;;;;21.93;35.62;98745.53;4736382;30;20055;-87
2022/06/23 08:02:26;;;;;;;0.40;0.40;;;;;;;22.06;36.12;98752.75;4752347;30;20056;-87
2022/06/23 08:05:05;;;;;;;0.40;0.40;;;;;;;22.23;36.16;98746.44;4750987;30;20052;-88
2022/06/23 08:07:33;;;;;;;0.40;0.40;;;;;;;22.28;36.00;98748.19;4735296;30;20056;-87
2022/06/23 08:10:06;;;;;;;0.40;0.40;;;;;;;22.39;35.33;98749.47;4736354;30;20160;-85
2022/06/23 08:12:53;;;;;;;0.40;0.40;;;;;;;22.62;35.06;98744.50;4733972;30;20088;-87
2022/06/23 08:18:53;;;;;;;0.40;0.40;;;;;;;22.83;34.54;98752.81;4749716;30;20089;-87
2022/06/23 08:21:23;;;;;;;0.40;0.40;;;;;;;22.97;34.56;98746.28;4739279;30;20544;-87
2022/06/23 08:24:14;;;;;;;0.40;0.40;;;;;;;23.12;34.25;98745.75;4749605;30;20052;-87
2022/06/23 08:26:45;;;;;;;0.40;0.40;;;;;;;23.31;34.03;98757.06;4739067;30;20063;-85
2022/06/23 08:29:16;;;;;;;0.40;0.40;;;;;;;23.57;33.11;98762.41;4739866;30;20056;-87
2022/06/23 08:31:44;;;;;;;0.40;0.40;;;;;;;23.65;32.43;98755.22;4736288;30;20539;-86
2022/06/23 08:34:31;;;;;;;0.40;0.40;;;;;;;23.74;32.83;98764.22;4736307;30;20067;-88
2022/06/23 08:37:15;;;;;;;0.40;0.40;;;;;;;23.94;32.52;98761.78;4736388;30;20087;-87
2022/06/23 08:40:04;;;;;;;0.40;0.40;;;;;;;24.10;31.91;98759.97;4735299;30;20066;-88
2022/06/23 08:42:53;;;;;;;0.40;0.40;;;;;;;24.16;33.28;98758.63;4736892;30;20080;-86
2022/06/23 08:45:35;;;;;;;0.40;0.40;;;;;;;24.62;31.98;98756.66;4738165;30;20052;-87
2022/06/23 08:48:21;;;;;;;0.40;0.40;;;;;;;24.79;31.74;98761.16;4749203;30;20060;-87
2022/06/23 08:50:56;;;;;;;0.40;0.40;;;;;;;24.98;29.90;98759.78;4735201;30;20517;-88
2022/06/23 08:53:28;;;;;;;0.40;0.40;;;;;;;25.15;30.87;98767.00;4735985;30;20084;-88
2022/06/23 08:56:07;;;;;;;0.40;0.40;;;;;;;25.47;30.09;98771.59;4734506;30;20052;-87
2022/06/23 08:58:41;;;;;;;0.45;0.45;;;;;;;25.70;30.95;98769.09;4760938;30;20052;-88
2022/06/23 09:01:10;;;;;;;;;;;;;;;26.02;30.11;98757.34;4718455;30;20087;-88
2022/06/23 09:03:41;;;;;;;0.50;0.50;;;;;;;26.23;29.29;98763.47;4751117;30;20040;-87
2022/06/23 09:06:35;;;;;;;0.40;0.40;;;;;;;26.34;29.42;98770.06;4750212;30;20064;-88
2022/06/23 09:09:15;;;;;;;;;;;;;;;26.42;28.93;98764.72;4738638;30;20125;-88
2022/06/23 09:12:01;;;;;;;0.40;0.40;;;;;;;26.50;28.12;98766.50;4749270;30;19971;-87
2022/06/23 09:14:55;;;;;;;0.40;0.40;;;;;;;26.59;28.25;98767.19;4736422;30;20480;-87
2022/06/23 09:17:52;;;;;;;0.40;0.40;;;;;;;26.79;27.59;98777.19;4751600;30;20058;-88
2022/06/23 09:20:34;;;;;;;0.40;0.40;;;;;;;26.98;27.69;98773.66;4739174;30;20060;-87
2022/06/23 09:23:21;;;;;;;0.50;0.50;;;;;;;27.08;28.03;98764.00;4741141;30;20052;-89
2022/06/23 09:26:23;;;;;;;0.40;0.40;;;;;;;27.29;27.65;98771.22;4737087;30;20590;-88
2022/06/23 09:28:51;;;;;;;0.40;0.40;;;;;;;27.44;27.50;98762.84;4734040;30;20052;-87
2022/06/23 09:31:26;;;;;;;0.40;0.40;;;;;;;27.63;27.19;98764.84;4749676;30;20068;-88
2022/06/23 09:34:22;;;;;;;0.40;0.40;;;;;;;27.62;26.97;98779.06;4732971;30;20504;-87
2022/06/23 09:36:58;;;;;;;0.40;0.40;;;;;;;27.62;26.79;98777.06;4734754;30;20065;-88
2022/06/23 09:39:50;;;;;;;0.77;0.77;;;;;;;27.31;26.18;98786.31;4737190;30;20433;-87
2022/06/23 09:42:42;;;;;;;0.40;0.40;;;;;;;27.53;26.85;98779.28;4734751;30;20064;-87
2022/06/23 09:45:23;;;;;;;0.40;0.40;;;;;;;28.02;25.87;98789.81;4749050;30;20122;-87
2022/06/23 09:48:12;;;;;;;0.40;0.40;;;;;;;28.61;24.88;98785.00;4747987;30;20087;-88
2022/06/23 09:50:45;;;;;;;0.40;0.40;;;;;;;28.00;25.10;98785.78;4732685;30;20143;-87
2022/06/23 09:53:41;;;;;;;0.30;0.30;;;;;;;28.07;25.96;98770.09;4747091;30;20128;-88
2022/06/23 09:56:15;;;;;;;0.50;0.50;;;;;;;28.80;25.36;98789.66;4731845;30;20466;-88
2022/06/23 09:58:51;;;;;;;0.40;0.40;;;;;;;28.93;25.08;98790.25;4731274;30;20464;-86
2022/06/23 10:01:50;;;;;;;0.40;0.40;;;;;;;29.36;25.37;98793.72;4733568;30;20056;-89
2022/06/23 10:04:59;;;;;;;0.40;0.40;;;;;;;29.60;24.80;98787.69;4732468;30;20057;-88
2022/06/23 10:07:40;;;;;;;0.40;0.40;;;;;;;29.72;24.66;98791.44;4747093;30;20057;-87
2022/06/23 10:10:11;;;;;;;0.40;0.40;;;;;;;29.33;24.32;98775.81;4732315;30;20147;-87
2022/06/23 10:12:47;;;;;;;0.40;0.40;;;;;;;29.01;25.58;98785.63;4746738;30;20084;-87
2022/06/23 10:15:32;;;;;;;0.40;0.40;;;;;;;29.63;24.84;98790.91;4735431;30;20095;-86
2022/06/23 10:18:22;;;;;;;0.40;0.40;;;;;;;29.42;25.06;98780.28;4734834;30;20095;-87
2022/06/23 10:21:38;;;;;;;0.40;0.40;;;;;;;29.88;24.39;98777.31;4754063;30;20428;-87
2022/06/23 10:24:08;;;;;;;0.40;0.40;;;;;;;29.91;24.07;98782.94;4762908;30;20159;-90
2022/06/23 10:27:00;;;;;;;0.40;0.40;;;;;;;29.96;24.16;98785.38;4438803;29;10000099;-89
2022/06/23 10:29:45;;;;;;;0.40;0.40;;;;;;;30.31;24.32;98788.94;4755104;30;20147;-92
2022/06/23 10:32:51;;;;;;;0.40;0.40;;;;;;;30.28;23.60;98798.88;4756585;30;20085;-91
2022/06/23 10:35:55;;;;;;;0.40;0.40;;;;;;;30.41;23.58;98796.59;4721172;30;20142;-92
2022/06/23 10:38:50;;;;;;;0.40;0.40;;;;;;;30.72;22.94;98789.75;4758226;30;20155;-92
2022/06/23 10:41:52;;;;;;;0.40;0.40;;;;;;;31.04;23.03;98798.41;4756326;30;20056;-92
2022/06/23 10:44:45;;;;;;;0.40;0.40;;;;;;;30.89;22.63;98805.03;4765265;30;20310;-91
2022/06/23 10:47:13;;;;;;;0.40;0.40;;;;;;;31.32;22.24;98788.59;4737708;30;20118;-90
2022/06/23 10:49:49;;;;;;;0.40;0.40;;;;;;;31.77;21.80;98789.28;4736751;30;20060;-93
2022/06/23 10:52:38;;;;;;;0.40;0.40;;;;;;;31.91;21.69;98791.34;4742697;30;20057;-89
2022/06/23 10:55:26;;;;;;;0.40;0.40;;;;;;;31.71;21.94;98793.66;4743172;30;20055;-91
2022/06/23 10:58:02;;;;;;;0.40;0.40;;;;;;;31.89;22.20;98788.13;4740074;30;20052;-91
2022/06/23 11:01:02;;;;;;;0.40;0.40;;;;;;;32.23;21.82;98773.91;4742467;30;20124;-94
2022/06/23 11:04:21;;;;;;;0.40;0.40;;;;;;;32.03;22.22;98787.41;4744282;30;20095;-95
2022/06/23 11:07:49;;;;;;;0.40;0.40;;;;;;;32.40;21.77;98781.50;4734385;30;20091;-92
2022/06/23 11:10:22;;;;;;;0.40;0.40;;;;;;;32.22;21.88;98792.66;4727231;30;20052;-93
2022/06/23 11:12:58;;;;;;;0.40;0.40;;;;;;;32.27;22.10;98788.69;4711059;30;20061;-93
2022/06/23 11:15:46;;;;;;;0.40;0.40;;;;;;;32.51;21.70;98798.31;4729575;30;20103;-92
2022/06/23 11:18:49;;;;;;;0.40;0.40;;;;;;;32.49;21.42;98792.34;4706379;30;20064;-94
2022/06/23 11:21:23;;;;;;;0.40;0.40;;;;;;;32.75;21.24;98797.53;4710134;30;20060;-92
2022/06/23 11:24:04;;;;;;;0.40;0.40;;;;;;;32.97;21.68;98800.34;4728607;30;20060;-92
2022/06/23 11:27:08;;;;;;;0.40;0.40;;;;;;;33.06;20.93;98788.78;4727192;30;20069;-93
2022/06/23 11:30:05;;;;;;;0.40;0.40;;;;;;;32.73;21.30;98796.34;4693875;30;20073;-94
2022/06/23 11:32:48;;;;;;;0.40;0.40;;;;;;;32.52;21.28;98791.53;4691221;30;20076;-93
2022/06/23 11:35:37;;;;;;;0.40;0.40;;;;;;;32.46;22.24;98787.50;4696009;30;20135;-93
2022/06/23 11:38:17;;;;;;;0.40;0.40;;;;;;;32.58;21.86;98779.56;4688932;30;20697;-93
2022/06/23 11:41:24;;;;;;;0.40;0.40;;;;;;;33.12;21.22;98792.75;4715972;30;20057;-91
2022/06/23 11:44:01;;;;;;;0.40;0.40;;;;;;;34.20;20.40;98790.44;4725725;30;20084;-93
2022/06/23 11:46:34;;;;;;;0.45;0.45;;;;;;;34.13;19.86;98784.88;4724838;30;20103;-93
2022/06/23 11:49:14;;;;;;;0.40;0.40;;;;;;;33.70;20.44;98796.22;4721824;30;20138;-91
2022/06/23 11:51:44;;;;;;;0.40;0.40;;;;;;;33.67;19.80;98793.03;4719936;30;20060;-92
2022/06/23 11:54:40;;;;;;;0.40;0.40;;;;;;;34.15;19.87;98790.88;4735875;30;20064;-92
2022/06/23 11:57:47;;;;;;;0.40;0.40;;;;;;;34.60;19.77;98785.41;4716468;30;20076;-94
2022/06/23 12:00:19;;;;;;;0.40;0.40;;;;;;;35.02;19.00;98789.03;4723444;30;20430;-92
2022/06/23 12:03:09;;;;;;;0.40;0.40;;;;;;;34.95;18.98;98799.13;4707814;30;20057;-93
2022/06/23 12:06:12;;;;;;;0.40;0.40;;;;;;;34.77;19.10;98804.09;4733066;30;20057;-92
2022/06/23 12:09:00;;;;;;;0.40;0.40;;;;;;;34.91;18.78;98809.56;4726970;30;20049;-94
2022/06/23 12:11:31;;;;;;;0.40;0.40;;;;;;;34.76;18.79;98804.47;4727386;30;20057;-93
2022/06/23 12:14:00;;;;;;;0.40;0.40;;;;;;;35.50;18.21;98807.81;4719607;30;20063;-93
2022/06/23 12:16:27;;;;;;;0.30;0.30;;;;;;;35.43;18.03;98799.50;4741291;30;20060;-95
2022/06/23 12:19:21;;;;;;;0.40;0.40;;;;;;;35.55;18.02;98804.56;4710721;30;20541;-96
2022/06/23 12:21:54;;;;;;;0.40;0.40;;;;;;;35.80;18.02;98796.69;4713494;30;20052;-95
2022/06/23 12:24:45;;;;;;;0.30;0.30;;;;;;;35.94;17.46;98803.31;4712992;30;20053;-93
2022/06/23 12:27:12;;;;;;;0.40;0.40;;;;;;;35.75;17.91;98802.75;4696266;30;20133;-90
2022/06/23 12:30:06;;;;;;;0.40;0.40;;;;;;;36.36;17.66;98793.56;4737957;30;20064;-91
2022/06/23 12:33:09;;;;;;;0.30;0.30;;;;;;;36.79;17.34;98800.53;4747436;30;20063;-87
2022/06/23 12:35:53;;;;;;;0.40;0.40;;;;;;;35.64;17.57;98804.88;4742213;30;20063;-90
2022/06/23 12:38:31;;;;;;;0.30;0.30;;;;;;;34.91;18.44;98805.97;4737849;30;20086;-91
2022/06/23 12:41:02;;;;;;;0.30;0.30;;;;;;;34.99;18.61;98803.88;4758511;30;21052;-91
2022/06/23 12:43:51;;;;;;;0.40;0.40;;;;;;;35.94;18.07;98806.94;4758650;30;20079;-92
2022/06/23 12:47:05;;;;;;;0.30;0.30;;;;;;;36.42;17.52;98788.25;4751069;30;20064;-90
2022/06/23 12:49:41;;;;;;;0.30;0.30;;;;;;;36.35;17.61;98802.38;4743999;30;20083;-91